sensor_id;sensor_type;location;lat;lon;timestamp;temperature;humidity
22635;DHT22;11484;50.858;4.384;2023-03-11T00:02:16;4.20;99.90
22635;DHT22;11484;50.858;4.384;2023-03-11T00:04:41;4.20;99.90
22635;DHT22;11484;50.858;4.384;2023-03-11T00:07:09;4.20;99.90
22635;DHT22;11484;50.858;4.384;2023-03-11T00:09:35;4.20;99.90
22635;DHT22;11484;50.858;4.384;2023-03-11T00:12:02;4.30;99.90
22635;DHT22;11484;50.858;4.384;2023-03-11T00:14:28;4.20;99.90
22635;DHT22;11484;50.858;4.384;2023-03-11T00:16:53;4.20;99.90
22635;DHT22;11484;50.858;4.384;2023-03-11T00:19:20;4.20;99.90
22635;DHT22;11484;50.858;4.384;2023-03-11T00:21:45;4.30;99.90
22635;DHT22;11484;50.858;4.384;2023-03-11T00:24:11;4.20;99.90
22635;DHT22;11484;50.858;4.384;2023-03-11T00:26:37;4.20;99.90
22635;DHT22;11484;50.858;4.384;2023-03-11T00:29:02;4.10;99.90
22635;DHT22;11484;50.858;4.384;2023-03-11T00:31:28;4.10;99.90
22635;DHT22;11484;50.858;4.384;2023-03-11T00:33:54;4.10;99.90
22635;DHT22;11484;50.858;4.384;2023-03-11T00:36:29;4.10;99.90
22635;DHT22;11484;50.858;4.384;2023-03-11T00:38:56;4.00;99.90
22635;DHT22;11484;50.858;4.384;2023-03-11T00:41:23;4.00;99.90
22635;DHT22;11484;50.858;4.384;2023-03-11T00:43:49;3.90;99.90
22635;DHT22;11484;50.858;4.384;2023-03-11T00:46:14;4.00;99.90
22635;DHT22;11484;50.858;4.384;2023-03-11T00:48:40;4.00;99.90
22635;DHT22;11484;50.858;4.384;2023-03-11T00:51:08;3.80;99.90
22635;DHT22;11484;50.858;4.384;2023-03-11T00:53:36;3.80;99.90
22635;DHT22;11484;50.858;4.384;2023-03-11T00:56:06;3.70;99.90
22635;DHT22;11484;50.858;4.384;2023-03-11T00:58:33;3.80;99.90
22635;DHT22;11484;50.858;4.384;2023-03-11T01:01:16;3.80;99.90
22635;DHT22;11484;50.858;4.384;2023-03-11T01:03:42;3.80;99.90
22635;DHT22;11484;50.858;4.384;2023-03-11T01:06:08;3.80;99.90
22635;DHT22;11484;50.858;4.384;2023-03-11T01:08:34;3.80;99.90
22635;DHT22;11484;50.858;4.384;2023-03-11T01:11:00;3.70;99.90
22635;DHT22;11484;50.858;4.384;2023-03-11T01:13:28;3.70;99.90
22635;DHT22;11484;50.858;4.384;2023-03-11T01:15:54;3.80;99.90
22635;DHT22;11484;50.858;4.384;2023-03-11T01:18:20;3.80;99.90
22635;DHT22;11484;50.858;4.384;2023-03-11T01:20:47;3.70;99.90
22635;DHT22;11484;50.858;4.384;2023-03-11T01:23:14;3.60;99.90
22635;DHT22;11484;50.858;4.384;2023-03-11T01:25:40;3.60;99.90
22635;DHT22;11484;50.858;4.384;2023-03-11T01:28:06;3.60;99.90
22635;DHT22;11484;50.858;4.384;2023-03-11T01:30:35;3.60;99.90
22635;DHT22;11484;50.858;4.384;2023-03-11T01:33:01;3.70;99.90
22635;DHT22;11484;50.858;4.384;2023-03-11T01:35:29;3.70;99.90
22635;DHT22;11484;50.858;4.384;2023-03-11T01:37:56;3.60;99.90
22635;DHT22;11484;50.858;4.384;2023-03-11T01:40:47;3.60;99.90
22635;DHT22;11484;50.858;4.384;2023-03-11T01:48:27;3.80;99.90
22635;DHT22;11484;50.858;4.384;2023-03-11T01:50:53;3.80;99.90
22635;DHT22;11484;50.858;4.384;2023-03-11T01:53:21;3.90;99.90
22635;DHT22;11484;50.858;4.384;2023-03-11T01:55:48;3.90;99.90
22635;DHT22;11484;50.858;4.384;2023-03-11T01:58:17;4.00;99.90
22635;DHT22;11484;50.858;4.384;2023-03-11T02:00:43;4.00;99.90
22635;DHT22;11484;50.858;4.384;2023-03-11T02:03:17;4.00;99.90
22635;DHT22;11484;50.858;4.384;2023-03-11T02:05:44;4.00;99.90
22635;DHT22;11484;50.858;4.384;2023-03-11T02:08:10;3.90;99.90
22635;DHT22;11484;50.858;4.384;2023-03-11T02:10:38;4.00;99.90
22635;DHT22;11484;50.858;4.384;2023-03-11T02:13:05;4.10;99.90
22635;DHT22;11484;50.858;4.384;2023-03-11T02:15:31;4.10;99.90
22635;DHT22;11484;50.858;4.384;2023-03-11T02:17:57;4.10;99.90
22635;DHT22;11484;50.858;4.384;2023-03-11T02:22:59;4.00;99.90
22635;DHT22;11484;50.858;4.384;2023-03-11T02:27:52;4.00;99.90
22635;DHT22;11484;50.858;4.384;2023-03-11T02:30:20;4.10;99.90
22635;DHT22;11484;50.858;4.384;2023-03-11T02:32:46;4.20;99.90
22635;DHT22;11484;50.858;4.384;2023-03-11T02:35:14;4.30;99.90
22635;DHT22;11484;50.858;4.384;2023-03-11T02:37:48;4.30;99.90
22635;DHT22;11484;50.858;4.384;2023-03-11T02:42:51;4.20;99.90
22635;DHT22;11484;50.858;4.384;2023-03-11T02:45:19;4.30;99.90
22635;DHT22;11484;50.858;4.384;2023-03-11T02:47:46;4.40;99.90
22635;DHT22;11484;50.858;4.384;2023-03-11T02:50:14;4.40;99.90
22635;DHT22;11484;50.858;4.384;2023-03-11T02:52:40;4.30;99.90
22635;DHT22;11484;50.858;4.384;2023-03-11T02:55:07;4.40;99.90
22635;DHT22;11484;50.858;4.384;2023-03-11T02:57:34;4.40;99.90
22635;DHT22;11484;50.858;4.384;2023-03-11T03:00:00;4.20;99.90
22635;DHT22;11484;50.858;4.384;2023-03-11T03:02:32;4.20;99.90
22635;DHT22;11484;50.858;4.384;2023-03-11T03:04:58;4.20;99.90
22635;DHT22;11484;50.858;4.384;2023-03-11T03:07:24;4.10;99.90
22635;DHT22;11484;50.858;4.384;2023-03-11T03:09:49;4.20;99.90
22635;DHT22;11484;50.858;4.384;2023-03-11T03:12:15;4.20;99.90
22635;DHT22;11484;50.858;4.384;2023-03-11T03:14:41;4.20;99.90
22635;DHT22;11484;50.858;4.384;2023-03-11T03:17:06;4.20;99.90
22635;DHT22;11484;50.858;4.384;2023-03-11T03:19:32;4.20;99.90
22635;DHT22;11484;50.858;4.384;2023-03-11T03:21:58;4.10;99.90
22635;DHT22;11484;50.858;4.384;2023-03-11T03:24:23;4.10;99.90
22635;DHT22;11484;50.858;4.384;2023-03-11T03:26:49;4.10;99.90
22635;DHT22;11484;50.858;4.384;2023-03-11T03:29:15;4.20;99.90
22635;DHT22;11484;50.858;4.384;2023-03-11T03:31:40;4.20;99.90
22635;DHT22;11484;50.858;4.384;2023-03-11T03:34:06;4.20;99.90
22635;DHT22;11484;50.858;4.384;2023-03-11T03:36:32;4.20;99.90
22635;DHT22;11484;50.858;4.384;2023-03-11T03:38:58;4.30;99.90
22635;DHT22;11484;50.858;4.384;2023-03-11T03:41:24;4.20;99.90
22635;DHT22;11484;50.858;4.384;2023-03-11T03:43:49;4.30;99.90
22635;DHT22;11484;50.858;4.384;2023-03-11T03:46:15;4.30;99.90
22635;DHT22;11484;50.858;4.384;2023-03-11T03:48:41;4.30;99.90
22635;DHT22;11484;50.858;4.384;2023-03-11T03:51:09;4.30;99.90
22635;DHT22;11484;50.858;4.384;2023-03-11T03:53:36;4.30;99.90
22635;DHT22;11484;50.858;4.384;2023-03-11T03:56:07;4.30;99.90
22635;DHT22;11484;50.858;4.384;2023-03-11T03:58:33;4.20;99.90
22635;DHT22;11484;50.858;4.384;2023-03-11T04:00:59;4.40;99.90
22635;DHT22;11484;50.858;4.384;2023-03-11T04:03:26;4.40;99.90
22635;DHT22;11484;50.858;4.384;2023-03-11T04:05:52;4.50;99.90
22635;DHT22;11484;50.858;4.384;2023-03-11T04:08:18;4.40;99.90
22635;DHT22;11484;50.858;4.384;2023-03-11T04:10:44;4.50;99.90
22635;DHT22;11484;50.858;4.384;2023-03-11T04:13:10;4.40;99.90
22635;DHT22;11484;50.858;4.384;2023-03-11T04:15:39;4.30;99.90
22635;DHT22;11484;50.858;4.384;2023-03-11T04:18:04;4.30;99.90
22635;DHT22;11484;50.858;4.384;2023-03-11T04:20:30;4.30;99.90
22635;DHT22;11484;50.858;4.384;2023-03-11T04:22:56;4.30;99.90
22635;DHT22;11484;50.858;4.384;2023-03-11T04:25:21;4.30;99.90
22635;DHT22;11484;50.858;4.384;2023-03-11T04:27:47;4.30;99.90
22635;DHT22;11484;50.858;4.384;2023-03-11T04:30:14;4.20;99.90
22635;DHT22;11484;50.858;4.384;2023-03-11T04:32:40;4.20;99.90
22635;DHT22;11484;50.858;4.384;2023-03-11T04:35:07;4.20;99.90
22635;DHT22;11484;50.858;4.384;2023-03-11T04:37:32;4.30;99.90
22635;DHT22;11484;50.858;4.384;2023-03-11T04:39:58;4.40;99.90
22635;DHT22;11484;50.858;4.384;2023-03-11T04:42:24;4.40;99.90
22635;DHT22;11484;50.858;4.384;2023-03-11T04:44:49;4.40;99.90
22635;DHT22;11484;50.858;4.384;2023-03-11T04:47:16;4.20;99.90
22635;DHT22;11484;50.858;4.384;2023-03-11T04:49:42;4.20;99.90
22635;DHT22;11484;50.858;4.384;2023-03-11T04:52:07;4.10;99.90
22635;DHT22;11484;50.858;4.384;2023-03-11T04:54:33;4.10;99.90
22635;DHT22;11484;50.858;4.384;2023-03-11T04:56:59;4.10;99.90
22635;DHT22;11484;50.858;4.384;2023-03-11T04:59:24;4.10;99.90
22635;DHT22;11484;50.858;4.384;2023-03-11T05:01:50;4.20;99.90
22635;DHT22;11484;50.858;4.384;2023-03-11T05:04:15;4.10;99.90
22635;DHT22;11484;50.858;4.384;2023-03-11T05:06:41;4.10;99.90
22635;DHT22;11484;50.858;4.384;2023-03-11T05:09:07;4.10;99.90
22635;DHT22;11484;50.858;4.384;2023-03-11T05:11:33;4.10;99.90
22635;DHT22;11484;50.858;4.384;2023-03-11T05:13:59;4.00;99.90
22635;DHT22;11484;50.858;4.384;2023-03-11T05:16:24;4.00;99.90
22635;DHT22;11484;50.858;4.384;2023-03-11T05:18:50;4.00;99.90
22635;DHT22;11484;50.858;4.384;2023-03-11T05:21:15;4.00;99.90
22635;DHT22;11484;50.858;4.384;2023-03-11T05:23:41;4.00;99.90
22635;DHT22;11484;50.858;4.384;2023-03-11T05:26:07;3.90;99.90
22635;DHT22;11484;50.858;4.384;2023-03-11T05:28:33;3.90;99.90
22635;DHT22;11484;50.858;4.384;2023-03-11T05:30:58;3.90;99.90
22635;DHT22;11484;50.858;4.384;2023-03-11T05:33:24;3.90;99.90
22635;DHT22;11484;50.858;4.384;2023-03-11T05:35:50;4.00;99.90
22635;DHT22;11484;50.858;4.384;2023-03-11T05:38:16;3.90;99.90
22635;DHT22;11484;50.858;4.384;2023-03-11T05:40:42;3.90;99.90
22635;DHT22;11484;50.858;4.384;2023-03-11T05:43:08;3.90;99.90
22635;DHT22;11484;50.858;4.384;2023-03-11T05:45:33;3.80;99.90
22635;DHT22;11484;50.858;4.384;2023-03-11T05:47:59;3.80;99.90
22635;DHT22;11484;50.858;4.384;2023-03-11T05:50:25;3.70;99.90
22635;DHT22;11484;50.858;4.384;2023-03-11T05:52:51;3.70;99.90
22635;DHT22;11484;50.858;4.384;2023-03-11T05:55:16;3.60;99.90
22635;DHT22;11484;50.858;4.384;2023-03-11T05:57:42;3.60;99.90
22635;DHT22;11484;50.858;4.384;2023-03-11T06:00:09;3.60;99.90
22635;DHT22;11484;50.858;4.384;2023-03-11T06:02:39;3.60;99.90
22635;DHT22;11484;50.858;4.384;2023-03-11T06:05:05;3.60;99.90
22635;DHT22;11484;50.858;4.384;2023-03-11T06:07:34;3.70;99.90
22635;DHT22;11484;50.858;4.384;2023-03-11T06:10:00;3.70;99.90
22635;DHT22;11484;50.858;4.384;2023-03-11T06:12:26;3.70;99.90
22635;DHT22;11484;50.858;4.384;2023-03-11T06:14:52;3.70;99.90
22635;DHT22;11484;50.858;4.384;2023-03-11T06:17:18;3.70;99.90
22635;DHT22;11484;50.858;4.384;2023-03-11T06:19:47;3.70;99.90
22635;DHT22;11484;50.858;4.384;2023-03-11T06:22:12;3.90;99.90
22635;DHT22;11484;50.858;4.384;2023-03-11T06:24:38;4.00;99.90
22635;DHT22;11484;50.858;4.384;2023-03-11T06:27:04;4.00;99.90
22635;DHT22;11484;50.858;4.384;2023-03-11T06:29:29;4.00;99.90
22635;DHT22;11484;50.858;4.384;2023-03-11T06:31:55;4.00;99.90
22635;DHT22;11484;50.858;4.384;2023-03-11T06:34:21;4.10;99.90
22635;DHT22;11484;50.858;4.384;2023-03-11T06:36:48;4.10;99.90
22635;DHT22;11484;50.858;4.384;2023-03-11T06:39:14;4.10;99.90
22635;DHT22;11484;50.858;4.384;2023-03-11T06:41:40;4.20;99.90
22635;DHT22;11484;50.858;4.384;2023-03-11T06:44:07;4.20;99.90
22635;DHT22;11484;50.858;4.384;2023-03-11T06:46:33;4.20;99.90
22635;DHT22;11484;50.858;4.384;2023-03-11T06:48:59;4.30;99.90
22635;DHT22;11484;50.858;4.384;2023-03-11T06:51:24;4.40;99.90
22635;DHT22;11484;50.858;4.384;2023-03-11T06:53:51;4.40;99.90
22635;DHT22;11484;50.858;4.384;2023-03-11T06:56:19;4.50;99.90
22635;DHT22;11484;50.858;4.384;2023-03-11T06:58:45;4.50;99.90
22635;DHT22;11484;50.858;4.384;2023-03-11T07:01:13;4.60;99.90
22635;DHT22;11484;50.858;4.384;2023-03-11T07:03:40;4.60;99.90
22635;DHT22;11484;50.858;4.384;2023-03-11T07:06:09;4.70;99.90
22635;DHT22;11484;50.858;4.384;2023-03-11T07:08:35;4.80;99.90
22635;DHT22;11484;50.858;4.384;2023-03-11T07:11:06;4.90;99.90
22635;DHT22;11484;50.858;4.384;2023-03-11T07:13:32;5.00;99.90
22635;DHT22;11484;50.858;4.384;2023-03-11T07:16:13;5.10;99.90
22635;DHT22;11484;50.858;4.384;2023-03-11T07:18:41;5.50;99.90
22635;DHT22;11484;50.858;4.384;2023-03-11T07:21:07;6.30;99.90
22635;DHT22;11484;50.858;4.384;2023-03-11T07:23:34;7.20;99.90
22635;DHT22;11484;50.858;4.384;2023-03-11T07:26:00;7.80;99.90
22635;DHT22;11484;50.858;4.384;2023-03-11T07:28:27;8.40;99.90
22635;DHT22;11484;50.858;4.384;2023-03-11T07:30:54;9.10;99.90
22635;DHT22;11484;50.858;4.384;2023-03-11T07:33:20;9.50;99.90
22635;DHT22;11484;50.858;4.384;2023-03-11T07:35:49;9.90;99.90
22635;DHT22;11484;50.858;4.384;2023-03-11T07:38:15;10.30;99.90
22635;DHT22;11484;50.858;4.384;2023-03-11T07:40:44;10.70;99.90
22635;DHT22;11484;50.858;4.384;2023-03-11T07:43:10;11.10;99.90
22635;DHT22;11484;50.858;4.384;2023-03-11T07:45:35;11.20;99.90
22635;DHT22;11484;50.858;4.384;2023-03-11T07:48:01;11.30;99.90
22635;DHT22;11484;50.858;4.384;2023-03-11T07:50:27;11.50;99.90
22635;DHT22;11484;50.858;4.384;2023-03-11T07:52:53;11.70;99.90
22635;DHT22;11484;50.858;4.384;2023-03-11T07:55:19;12.10;99.90
22635;DHT22;11484;50.858;4.384;2023-03-11T07:57:48;12.50;99.90
22635;DHT22;11484;50.858;4.384;2023-03-11T08:00:14;12.50;99.90
22635;DHT22;11484;50.858;4.384;2023-03-11T08:02:40;12.30;99.90
22635;DHT22;11484;50.858;4.384;2023-03-11T08:05:06;12.20;99.90
22635;DHT22;11484;50.858;4.384;2023-03-11T08:07:32;12.10;99.50
22635;DHT22;11484;50.858;4.384;2023-03-11T08:09:58;12.20;99.30
22635;DHT22;11484;50.858;4.384;2023-03-11T08:12:24;12.20;99.30
22635;DHT22;11484;50.858;4.384;2023-03-11T08:14:49;12.00;98.80
22635;DHT22;11484;50.858;4.384;2023-03-11T08:17:15;11.60;98.80
22635;DHT22;11484;50.858;4.384;2023-03-11T08:19:41;11.40;99.90
22635;DHT22;11484;50.858;4.384;2023-03-11T08:22:07;11.40;99.90
22635;DHT22;11484;50.858;4.384;2023-03-11T08:24:32;11.40;99.90
22635;DHT22;11484;50.858;4.384;2023-03-11T08:26:58;11.30;99.60
22635;DHT22;11484;50.858;4.384;2023-03-11T08:29:24;11.30;99.10
22635;DHT22;11484;50.858;4.384;2023-03-11T08:31:50;11.80;99.60
22635;DHT22;11484;50.858;4.384;2023-03-11T08:34:15;12.50;98.50
22635;DHT22;11484;50.858;4.384;2023-03-11T08:36:41;13.00;97.70
22635;DHT22;11484;50.858;4.384;2023-03-11T08:39:07;13.50;96.20
22635;DHT22;11484;50.858;4.384;2023-03-11T08:41:33;13.80;95.10
22635;DHT22;11484;50.858;4.384;2023-03-11T08:43:59;14.30;93.40
22635;DHT22;11484;50.858;4.384;2023-03-11T08:46:36;14.40;92.70
22635;DHT22;11484;50.858;4.384;2023-03-11T08:49:03;14.10;92.30
22635;DHT22;11484;50.858;4.384;2023-03-11T08:51:31;14.30;91.90
22635;DHT22;11484;50.858;4.384;2023-03-11T08:53:58;14.50;90.70
22635;DHT22;11484;50.858;4.384;2023-03-11T08:56:24;14.90;90.30
22635;DHT22;11484;50.858;4.384;2023-03-11T08:58:50;15.10;90.00
22635;DHT22;11484;50.858;4.384;2023-03-11T09:01:16;15.20;88.10
22635;DHT22;11484;50.858;4.384;2023-03-11T09:03:42;15.30;85.60
22635;DHT22;11484;50.858;4.384;2023-03-11T09:06:11;15.30;82.80
22635;DHT22;11484;50.858;4.384;2023-03-11T09:08:38;15.50;82.00
22635;DHT22;11484;50.858;4.384;2023-03-11T09:11:04;15.60;79.40
22635;DHT22;11484;50.858;4.384;2023-03-11T09:13:30;15.80;77.40
22635;DHT22;11484;50.858;4.384;2023-03-11T09:15:55;16.30;71.90
22635;DHT22;11484;50.858;4.384;2023-03-11T09:18:21;16.60;71.20
22635;DHT22;11484;50.858;4.384;2023-03-11T09:20:47;16.80;68.80
22635;DHT22;11484;50.858;4.384;2023-03-11T09:23:14;17.20;67.80
22635;DHT22;11484;50.858;4.384;2023-03-11T09:25:40;17.20;64.00
22635;DHT22;11484;50.858;4.384;2023-03-11T09:28:06;16.70;61.80
22635;DHT22;11484;50.858;4.384;2023-03-11T09:30:32;16.00;60.20
22635;DHT22;11484;50.858;4.384;2023-03-11T09:32:58;16.10;62.30
22635;DHT22;11484;50.858;4.384;2023-03-11T09:35:24;16.20;61.20
22635;DHT22;11484;50.858;4.384;2023-03-11T09:37:49;15.90;57.20
22635;DHT22;11484;50.858;4.384;2023-03-11T09:40:18;15.60;56.60
22635;DHT22;11484;50.858;4.384;2023-03-11T09:45:30;16.00;57.20
22635;DHT22;11484;50.858;4.384;2023-03-11T09:50:52;16.10;59.00
22635;DHT22;11484;50.858;4.384;2023-03-11T09:53:50;16.50;59.50
22635;DHT22;11484;50.858;4.384;2023-03-11T09:56:21;16.60;56.80
22635;DHT22;11484;50.858;4.384;2023-03-11T09:58:54;17.10;57.00
22635;DHT22;11484;50.858;4.384;2023-03-11T10:01:27;17.40;56.90
22635;DHT22;11484;50.858;4.384;2023-03-11T10:04:01;17.00;55.20
22635;DHT22;11484;50.858;4.384;2023-03-11T10:06:29;17.10;54.60
22635;DHT22;11484;50.858;4.384;2023-03-11T10:12:06;16.90;54.80
22635;DHT22;11484;50.858;4.384;2023-03-11T10:23:08;15.40;57.20
22635;DHT22;11484;50.858;4.384;2023-03-11T10:28:36;14.10;58.30
22635;DHT22;11484;50.858;4.384;2023-03-11T10:31:27;13.50;60.50
22635;DHT22;11484;50.858;4.384;2023-03-11T10:33:56;13.20;64.50
22635;DHT22;11484;50.858;4.384;2023-03-11T10:36:33;13.20;65.20
22635;DHT22;11484;50.858;4.384;2023-03-11T10:39:00;12.90;63.90
22635;DHT22;11484;50.858;4.384;2023-03-11T10:41:31;12.80;63.20
22635;DHT22;11484;50.858;4.384;2023-03-11T10:44:16;12.70;62.70
22635;DHT22;11484;50.858;4.384;2023-03-11T10:46:43;12.50;63.60
22635;DHT22;11484;50.858;4.384;2023-03-11T10:49:14;12.40;65.60
22635;DHT22;11484;50.858;4.384;2023-03-11T10:51:40;12.40;63.80
22635;DHT22;11484;50.858;4.384;2023-03-11T10:54:23;11.90;61.80
22635;DHT22;11484;50.858;4.384;2023-03-11T10:56:54;11.90;63.70
22635;DHT22;11484;50.858;4.384;2023-03-11T10:59:30;11.90;64.10
22635;DHT22;11484;50.858;4.384;2023-03-11T11:01:59;11.90;63.70
22635;DHT22;11484;50.858;4.384;2023-03-11T11:06:54;11.80;64.80
22635;DHT22;11484;50.858;4.384;2023-03-11T11:09:21;11.70;65.10
22635;DHT22;11484;50.858;4.384;2023-03-11T11:12:05;11.70;66.00
22635;DHT22;11484;50.858;4.384;2023-03-11T11:14:45;11.50;64.20
22635;DHT22;11484;50.858;4.384;2023-03-11T11:17:39;11.50;64.60
22635;DHT22;11484;50.858;4.384;2023-03-11T11:20:16;11.40;64.60
22635;DHT22;11484;50.858;4.384;2023-03-11T11:23:02;11.30;63.70
22635;DHT22;11484;50.858;4.384;2023-03-11T11:25:37;11.20;65.10
22635;DHT22;11484;50.858;4.384;2023-03-11T11:28:14;11.10;64.80
22635;DHT22;11484;50.858;4.384;2023-03-11T11:30:55;11.20;64.10
22635;DHT22;11484;50.858;4.384;2023-03-11T11:33:30;11.30;63.20
22635;DHT22;11484;50.858;4.384;2023-03-11T11:36:00;11.40;63.70
22635;DHT22;11484;50.858;4.384;2023-03-11T11:38:27;11.50;63.90
22635;DHT22;11484;50.858;4.384;2023-03-11T11:40:55;11.50;65.00
22635;DHT22;11484;50.858;4.384;2023-03-11T11:43:49;11.50;64.90
22635;DHT22;11484;50.858;4.384;2023-03-11T11:49:21;11.30;65.50
22635;DHT22;11484;50.858;4.384;2023-03-11T11:51:54;11.30;65.50
22635;DHT22;11484;50.858;4.384;2023-03-11T11:54:39;11.30;65.70
22635;DHT22;11484;50.858;4.384;2023-03-11T11:57:14;11.20;65.30
22635;DHT22;11484;50.858;4.384;2023-03-11T11:59:40;11.30;65.20
22635;DHT22;11484;50.858;4.384;2023-03-11T12:04:45;11.10;65.80
22635;DHT22;11484;50.858;4.384;2023-03-11T12:12:41;11.00;66.30
22635;DHT22;11484;50.858;4.384;2023-03-11T12:15:40;11.00;66.00
22635;DHT22;11484;50.858;4.384;2023-03-11T12:18:23;11.10;65.00
22635;DHT22;11484;50.858;4.384;2023-03-11T12:20:55;11.20;65.10
22635;DHT22;11484;50.858;4.384;2023-03-11T12:23:27;11.10;65.60
22635;DHT22;11484;50.858;4.384;2023-03-11T12:28:55;11.10;66.80
22635;DHT22;11484;50.858;4.384;2023-03-11T12:31:24;11.00;66.60
22635;DHT22;11484;50.858;4.384;2023-03-11T12:34:00;11.00;66.70
22635;DHT22;11484;50.858;4.384;2023-03-11T12:38:57;11.00;67.00
22635;DHT22;11484;50.858;4.384;2023-03-11T12:41:42;11.00;68.10
22635;DHT22;11484;50.858;4.384;2023-03-11T12:49:28;11.00;67.80
22635;DHT22;11484;50.858;4.384;2023-03-11T12:54:32;11.00;67.20
22635;DHT22;11484;50.858;4.384;2023-03-11T12:57:08;11.00;67.40
22635;DHT22;11484;50.858;4.384;2023-03-11T13:08:36;10.80;69.70
22635;DHT22;11484;50.858;4.384;2023-03-11T13:14:28;10.70;69.60
22635;DHT22;11484;50.858;4.384;2023-03-11T13:16:56;10.60;68.80
22635;DHT22;11484;50.858;4.384;2023-03-11T13:19:50;10.60;69.80
22635;DHT22;11484;50.858;4.384;2023-03-11T13:22:39;10.70;69.50
22635;DHT22;11484;50.858;4.384;2023-03-11T13:33:58;10.60;70.60
22635;DHT22;11484;50.858;4.384;2023-03-11T13:37:04;10.60;70.70
22635;DHT22;11484;50.858;4.384;2023-03-11T13:42:23;10.40;70.10
22635;DHT22;11484;50.858;4.384;2023-03-11T13:44:51;10.40;70.40
22635;DHT22;11484;50.858;4.384;2023-03-11T13:47:17;10.60;68.50
22635;DHT22;11484;50.858;4.384;2023-03-11T13:50:07;10.70;68.80
22635;DHT22;11484;50.858;4.384;2023-03-11T13:52:38;10.70;68.10
22635;DHT22;11484;50.858;4.384;2023-03-11T13:55:18;10.90;68.60
22635;DHT22;11484;50.858;4.384;2023-03-11T13:57:53;10.80;68.40
22635;DHT22;11484;50.858;4.384;2023-03-11T14:00:22;10.70;68.20
22635;DHT22;11484;50.858;4.384;2023-03-11T14:02:54;10.70;68.70
22635;DHT22;11484;50.858;4.384;2023-03-11T14:05:23;10.60;69.30
22635;DHT22;11484;50.858;4.384;2023-03-11T14:07:49;10.60;68.90
22635;DHT22;11484;50.858;4.384;2023-03-11T14:10:26;10.40;68.70
22635;DHT22;11484;50.858;4.384;2023-03-11T14:13:14;10.20;68.60
22635;DHT22;11484;50.858;4.384;2023-03-11T14:18:28;10.20;69.20
22635;DHT22;11484;50.858;4.384;2023-03-11T14:20:55;10.30;68.40
22635;DHT22;11484;50.858;4.384;2023-03-11T14:23:26;10.30;68.10
22635;DHT22;11484;50.858;4.384;2023-03-11T14:26:00;10.30;67.40
22635;DHT22;11484;50.858;4.384;2023-03-11T14:28:30;10.20;66.20
22635;DHT22;11484;50.858;4.384;2023-03-11T14:30:58;10.10;66.40
22635;DHT22;11484;50.858;4.384;2023-03-11T14:33:24;10.00;66.30
22635;DHT22;11484;50.858;4.384;2023-03-11T14:36:00;10.10;66.50
22635;DHT22;11484;50.858;4.384;2023-03-11T14:38:28;10.00;65.90
22635;DHT22;11484;50.858;4.384;2023-03-11T14:41:00;10.00;65.90
22635;DHT22;11484;50.858;4.384;2023-03-11T14:43:30;10.00;66.00
22635;DHT22;11484;50.858;4.384;2023-03-11T14:45:57;10.00;66.60
22635;DHT22;11484;50.858;4.384;2023-03-11T14:48:28;9.90;65.10
22635;DHT22;11484;50.858;4.384;2023-03-11T14:50:57;10.00;63.90
22635;DHT22;11484;50.858;4.384;2023-03-11T14:56:11;10.00;62.00
22635;DHT22;11484;50.858;4.384;2023-03-11T14:58:53;10.10;62.10
22635;DHT22;11484;50.858;4.384;2023-03-11T15:01:28;10.00;60.90
22635;DHT22;11484;50.858;4.384;2023-03-11T15:03:59;10.00;59.90
22635;DHT22;11484;50.858;4.384;2023-03-11T15:06:28;9.80;58.90
22635;DHT22;11484;50.858;4.384;2023-03-11T15:09:15;9.80;60.10
22635;DHT22;11484;50.858;4.384;2023-03-11T15:11:56;9.70;61.30
22635;DHT22;11484;50.858;4.384;2023-03-11T15:14:34;9.80;62.20
22635;DHT22;11484;50.858;4.384;2023-03-11T15:17:25;9.60;62.00
22635;DHT22;11484;50.858;4.384;2023-03-11T15:19:53;9.50;63.70
22635;DHT22;11484;50.858;4.384;2023-03-11T15:22:24;9.50;65.30
22635;DHT22;11484;50.858;4.384;2023-03-11T15:24:50;9.50;65.80
22635;DHT22;11484;50.858;4.384;2023-03-11T15:27:33;9.50;66.50
22635;DHT22;11484;50.858;4.384;2023-03-11T15:30:00;9.60;65.90
22635;DHT22;11484;50.858;4.384;2023-03-11T15:32:43;9.50;65.50
22635;DHT22;11484;50.858;4.384;2023-03-11T15:37:39;9.60;64.90
22635;DHT22;11484;50.858;4.384;2023-03-11T15:40:22;9.60;65.10
22635;DHT22;11484;50.858;4.384;2023-03-11T15:42:49;9.60;65.90
22635;DHT22;11484;50.858;4.384;2023-03-11T15:45:27;9.50;64.50
22635;DHT22;11484;50.858;4.384;2023-03-11T15:47:53;9.50;62.60
22635;DHT22;11484;50.858;4.384;2023-03-11T15:50:25;9.50;62.90
22635;DHT22;11484;50.858;4.384;2023-03-11T15:52:54;9.50;62.80
22635;DHT22;11484;50.858;4.384;2023-03-11T15:55:20;9.40;64.10
22635;DHT22;11484;50.858;4.384;2023-03-11T15:57:47;9.30;65.20
22635;DHT22;11484;50.858;4.384;2023-03-11T16:00:20;9.30;65.30
22635;DHT22;11484;50.858;4.384;2023-03-11T16:02:48;9.20;64.80
22635;DHT22;11484;50.858;4.384;2023-03-11T16:05:17;9.20;64.50
22635;DHT22;11484;50.858;4.384;2023-03-11T16:07:42;9.00;63.30
22635;DHT22;11484;50.858;4.384;2023-03-11T16:10:09;9.10;62.60
22635;DHT22;11484;50.858;4.384;2023-03-11T16:12:36;9.00;63.30
22635;DHT22;11484;50.858;4.384;2023-03-11T16:15:03;9.00;64.50
22635;DHT22;11484;50.858;4.384;2023-03-11T16:17:28;9.00;64.40
22635;DHT22;11484;50.858;4.384;2023-03-11T16:19:54;9.20;64.70
22635;DHT22;11484;50.858;4.384;2023-03-11T16:22:32;9.30;64.50
22635;DHT22;11484;50.858;4.384;2023-03-11T16:25:00;9.50;63.60
22635;DHT22;11484;50.858;4.384;2023-03-11T16:27:27;9.70;63.90
22635;DHT22;11484;50.858;4.384;2023-03-11T16:29:52;9.70;65.30
22635;DHT22;11484;50.858;4.384;2023-03-11T16:32:18;9.60;65.00
22635;DHT22;11484;50.858;4.384;2023-03-11T16:34:44;9.70;65.90
22635;DHT22;11484;50.858;4.384;2023-03-11T16:37:14;9.70;66.50
22635;DHT22;11484;50.858;4.384;2023-03-11T16:39:39;9.70;67.00
22635;DHT22;11484;50.858;4.384;2023-03-11T16:42:06;9.60;66.20
22635;DHT22;11484;50.858;4.384;2023-03-11T16:44:32;9.70;66.40
22635;DHT22;11484;50.858;4.384;2023-03-11T16:46:58;9.60;66.00
22635;DHT22;11484;50.858;4.384;2023-03-11T16:49:24;9.70;66.40
22635;DHT22;11484;50.858;4.384;2023-03-11T16:51:49;9.70;67.00
22635;DHT22;11484;50.858;4.384;2023-03-11T16:54:15;9.80;66.10
22635;DHT22;11484;50.858;4.384;2023-03-11T16:56:41;9.80;66.10
22635;DHT22;11484;50.858;4.384;2023-03-11T16:59:07;9.80;66.00
22635;DHT22;11484;50.858;4.384;2023-03-11T17:01:32;9.70;66.20
22635;DHT22;11484;50.858;4.384;2023-03-11T17:04:05;9.70;67.30
22635;DHT22;11484;50.858;4.384;2023-03-11T17:06:32;9.60;67.60
22635;DHT22;11484;50.858;4.384;2023-03-11T17:08:57;9.50;68.40
22635;DHT22;11484;50.858;4.384;2023-03-11T17:11:23;9.50;68.80
22635;DHT22;11484;50.858;4.384;2023-03-11T17:13:53;9.50;69.10
22635;DHT22;11484;50.858;4.384;2023-03-11T17:16:19;9.50;68.20
22635;DHT22;11484;50.858;4.384;2023-03-11T17:18:45;9.40;68.10
22635;DHT22;11484;50.858;4.384;2023-03-11T17:21:13;9.20;68.20
22635;DHT22;11484;50.858;4.384;2023-03-11T17:23:40;9.00;68.10